createdAt,value
2023-05-14T00:04:35.128Z,14.30
2023-05-14T00:09:37.989Z,12.40
2023-05-14T00:14:40.871Z,15.00
2023-05-14T00:19:43.614Z,12.80
2023-05-14T00:24:46.169Z,14.40
2023-05-14T00:29:48.652Z,16.20
2023-05-14T00:34:51.257Z,12.50
2023-05-14T00:39:53.824Z,12.90
2023-05-14T00:44:56.543Z,12.30
2023-05-14T00:49:59.184Z,15.20
2023-05-14T00:55:04.596Z,15.70
2023-05-14T01:00:08.803Z,13.50
2023-05-14T01:05:11.481Z,16.40
2023-05-14T01:10:22.064Z,14.50
2023-05-14T01:15:30.720Z,16.20
2023-05-14T01:20:33.321Z,11.90
2023-05-14T01:25:35.985Z,10.70
2023-05-14T01:31:04.421Z,12.70
2023-05-14T01:36:07.477Z,13.30
2023-05-14T01:41:10.175Z,12.00
2023-05-14T01:46:12.755Z,11.50
2023-05-14T01:51:15.409Z,13.60
2023-05-14T01:56:19.831Z,14.00
2023-05-14T02:01:22.848Z,12.10
2023-05-14T02:06:25.590Z,14.20
2023-05-14T02:11:28.130Z,14.40
2023-05-14T02:16:31.183Z,13.30
2023-05-14T02:21:33.882Z,13.50
2023-05-14T02:26:36.417Z,14.10
2023-05-14T02:31:39.250Z,12.30
2023-05-14T02:36:41.993Z,14.00
2023-05-14T02:41:44.498Z,10.80
2023-05-14T02:46:48.223Z,11.60
2023-05-14T02:51:51.037Z,12.70
2023-05-14T02:56:53.652Z,11.80
2023-05-14T03:01:56.191Z,13.70
2023-05-14T03:06:59.248Z,13.90
2023-05-14T03:12:01.892Z,11.90
2023-05-14T03:17:05.329Z,12.80
2023-05-14T03:22:07.971Z,14.50
2023-05-14T03:27:10.548Z,15.30
2023-05-14T03:32:13.143Z,10.50
2023-05-14T03:37:16.208Z,10.30
2023-05-14T03:42:18.740Z,13.70
2023-05-14T03:47:21.370Z,13.40
2023-05-14T03:52:24.001Z,14.70
2023-05-14T03:57:26.546Z,11.50
2023-05-14T04:02:29.121Z,17.80
2023-05-14T04:07:31.829Z,13.50
2023-05-14T04:12:34.522Z,13.40
2023-05-14T04:17:37.207Z,10.60
2023-05-14T04:22:40.012Z,15.80
2023-05-14T04:27:42.535Z,13.80
2023-05-14T04:32:45.587Z,11.00
2023-05-14T04:37:49.154Z,13.70
2023-05-14T04:42:52.104Z,10.40
2023-05-14T04:47:54.851Z,15.50
2023-05-14T04:52:57.660Z,12.00
2023-05-14T04:58:00.229Z,11.40
2023-05-14T05:03:03.418Z,8.30
2023-05-14T05:08:06.110Z,12.30
2023-05-14T05:13:08.787Z,10.30
2023-05-14T05:18:11.394Z,11.40
2023-05-14T05:23:14.065Z,6.50
2023-05-14T05:28:16.836Z,7.40
2023-05-14T05:33:20.748Z,7.90
2023-05-14T05:38:23.327Z,7.20
2023-05-14T05:43:25.977Z,6.40
2023-05-14T05:48:28.616Z,6.10
2023-05-14T05:53:31.153Z,6.60
2023-05-14T05:58:34.116Z,6.20
2023-05-14T06:03:36.745Z,6.90
2023-05-14T06:08:39.303Z,7.10
2023-05-14T06:13:41.879Z,5.70
2023-05-14T06:18:44.528Z,6.80
2023-05-14T06:23:47.394Z,6.30
2023-05-14T06:28:50.034Z,5.90
2023-05-14T06:33:52.681Z,4.60
2023-05-14T06:38:55.244Z,5.10
2023-05-14T06:43:57.834Z,8.90
2023-05-14T06:49:00.448Z,9.50
2023-05-14T06:54:04.702Z,4.50
2023-05-14T06:59:07.317Z,5.70
2023-05-14T07:04:10.266Z,6.10
2023-05-14T07:09:13.281Z,6.10
2023-05-14T07:14:15.926Z,7.60
2023-05-14T07:19:18.653Z,7.00
2023-05-14T07:24:21.408Z,7.00
2023-05-14T07:29:25.458Z,3.30
2023-05-14T07:34:28.121Z,8.20
2023-05-14T07:39:30.943Z,6.70
2023-05-14T07:44:33.544Z,4.30
2023-05-14T07:49:36.808Z,4.60
2023-05-14T07:54:39.354Z,9.70
2023-05-14T07:59:41.869Z,3.80
2023-05-14T08:04:45.294Z,4.90
2023-05-14T08:09:47.836Z,4.80
2023-05-14T08:14:50.376Z,4.90
2023-05-14T08:19:54.220Z,2.50
2023-05-14T08:24:59.451Z,7.60
2023-05-14T08:30:03.482Z,5.20
2023-05-14T08:35:08.704Z,5.00
2023-05-14T08:40:12.264Z,4.40
2023-05-14T08:45:25.522Z,4.00
2023-05-14T08:50:30.331Z,4.20
2023-05-14T08:55:34.231Z,3.70
2023-05-14T09:00:37.291Z,2.40
2023-05-14T09:05:40.977Z,7.70
2023-05-14T09:10:43.581Z,2.80
2023-05-14T09:15:48.394Z,8.40
2023-05-14T09:20:52.316Z,3.10
2023-05-14T09:25:54.882Z,4.30
2023-05-14T09:30:57.426Z,3.80
2023-05-14T09:36:02.777Z,5.50
2023-05-14T09:41:05.546Z,4.00
2023-05-14T09:46:08.194Z,4.70
2023-05-14T09:51:11.487Z,3.60
2023-05-14T09:56:14.802Z,4.90
2023-05-14T10:01:19.601Z,4.60
2023-05-14T10:06:25.992Z,3.30
2023-05-14T10:11:32.756Z,2.40
2023-05-14T10:16:38.686Z,2.90
2023-05-14T10:21:44.687Z,3.80
2023-05-14T10:26:47.886Z,4.40
2023-05-14T10:31:54.144Z,5.60
2023-05-14T10:37:01.961Z,5.60
2023-05-14T10:42:04.796Z,2.40
2023-05-14T10:47:07.933Z,5.40
2023-05-14T10:52:12.345Z,2.90
2023-05-14T10:57:14.938Z,4.80
2023-05-14T11:02:23.212Z,4.00
2023-05-14T11:07:30.198Z,3.50
2023-05-14T11:12:37.975Z,6.10
2023-05-14T11:17:41.977Z,3.30
2023-05-14T11:22:46.175Z,3.10
2023-05-14T11:27:50.031Z,4.40
2023-05-14T11:32:54.366Z,4.80
2023-05-14T11:37:57.015Z,5.50
2023-05-14T11:42:59.767Z,2.80
2023-05-14T11:48:02.739Z,3.30
2023-05-14T11:53:05.283Z,5.90
2023-05-14T11:58:08.189Z,6.30
2023-05-14T12:03:11.451Z,3.30
2023-05-14T12:08:26.765Z,3.70
2023-05-14T12:13:30.702Z,3.70
2023-05-14T12:18:33.696Z,4.20
2023-05-14T12:23:39.295Z,3.80
2023-05-14T12:28:43.475Z,5.40
2023-05-14T12:33:46.493Z,5.70
2023-05-14T12:38:50.418Z,4.30
2023-05-14T12:43:53.061Z,4.40
2023-05-14T12:48:56.728Z,5.10
2023-05-14T12:53:59.282Z,3.40
2023-05-14T12:59:01.939Z,3.40
2023-05-14T13:04:05.708Z,3.70
2023-05-14T13:09:08.653Z,3.50
2023-05-14T13:14:11.186Z,3.40
2023-05-14T13:19:13.865Z,2.90
2023-05-14T13:24:17.469Z,2.90
2023-05-14T13:29:20.063Z,4.80
2023-05-14T13:34:22.660Z,3.20
2023-05-14T13:39:27.090Z,3.10
2023-05-14T13:44:30.267Z,2.70
2023-05-14T13:49:32.883Z,3.20
2023-05-14T13:54:35.451Z,2.80
2023-05-14T13:59:38.358Z,5.40
2023-05-14T14:04:41.063Z,3.20
2023-05-14T14:09:45.086Z,2.50
2023-05-14T14:14:47.622Z,5.50
2023-05-14T14:19:50.155Z,1.90
2023-05-14T14:24:52.730Z,2.40
2023-05-14T14:29:56.683Z,3.20
2023-05-14T14:34:59.208Z,2.00
2023-05-14T14:40:01.851Z,2.20
2023-05-14T14:45:05.450Z,3.20
2023-05-14T14:50:08.578Z,3.50
2023-05-14T14:55:11.295Z,2.10
2023-05-14T15:00:14.979Z,4.30
2023-05-14T15:05:18.153Z,2.80
2023-05-14T15:10:20.696Z,3.10
2023-05-14T15:15:23.836Z,5.40
2023-05-14T15:20:26.764Z,4.70
2023-05-14T15:25:29.428Z,3.20
2023-05-14T15:30:32.009Z,3.90
2023-05-14T15:35:34.651Z,2.90
2023-05-14T15:40:37.221Z,4.20
2023-05-14T15:45:39.769Z,2.40
2023-05-14T15:50:42.398Z,2.30
2023-05-14T15:55:45.123Z,2.60
2023-05-14T16:00:47.819Z,3.50
2023-05-14T16:05:50.892Z,3.40
2023-05-14T16:10:53.477Z,3.50
2023-05-14T16:15:56.428Z,4.70
2023-05-14T16:20:59.086Z,3.00
2023-05-14T16:26:01.879Z,2.70
2023-05-14T16:31:04.415Z,3.80
2023-05-14T16:36:07.420Z,2.50
2023-05-14T16:41:10.532Z,3.10
2023-05-14T16:46:13.490Z,2.40
2023-05-14T16:51:16.531Z,3.40
2023-05-14T16:56:19.264Z,4.00
2023-05-14T17:01:21.937Z,5.60
2023-05-14T17:06:24.674Z,3.00
2023-05-14T17:11:27.272Z,3.20
2023-05-14T17:16:32.764Z,3.70
2023-05-14T17:21:34.263Z,4.50
2023-05-14T17:26:37.772Z,5.40
2023-05-14T17:31:40.452Z,4.90
2023-05-14T17:36:43.315Z,2.70
2023-05-14T17:41:46.269Z,3.90
2023-05-14T17:46:49.624Z,3.10
2023-05-14T17:51:52.246Z,3.20
2023-05-14T17:56:54.892Z,3.70
2023-05-14T18:01:57.479Z,2.70
2023-05-14T18:07:01.723Z,4.70
2023-05-14T18:12:04.497Z,5.40
2023-05-14T18:17:07.245Z,4.50
2023-05-14T18:22:09.860Z,5.30
2023-05-14T18:27:12.523Z,4.00
2023-05-14T18:32:15.311Z,4.00
2023-05-14T18:37:17.829Z,6.10
2023-05-14T18:42:20.516Z,5.00
2023-05-14T18:47:23.510Z,7.00
2023-05-14T18:52:26.598Z,4.80
2023-05-14T18:57:29.366Z,10.10
2023-05-14T19:02:32.029Z,6.80
2023-05-14T19:07:34.883Z,7.20
2023-05-14T19:12:37.754Z,5.20
2023-05-14T19:17:40.465Z,8.40
2023-05-14T19:22:43.043Z,8.80
2023-05-14T19:27:47.682Z,9.50
2023-05-14T19:32:50.279Z,8.00
2023-05-14T19:37:52.948Z,10.80
2023-05-14T19:42:55.521Z,8.50
2023-05-14T19:47:58.205Z,9.90
2023-05-14T19:53:01.149Z,8.10
2023-05-14T19:58:03.811Z,7.80
2023-05-14T20:03:06.509Z,9.00
2023-05-14T20:08:09.272Z,8.80
2023-05-14T20:13:11.845Z,9.50
2023-05-14T20:18:14.494Z,7.60
2023-05-14T20:23:17.203Z,8.90
2023-05-14T20:28:20.131Z,8.50
2023-05-14T20:33:22.655Z,14.80
2023-05-14T20:38:29.110Z,23.30
2023-05-14T20:43:31.726Z,16.60
2023-05-14T20:48:34.368Z,15.50
2023-05-14T20:53:38.981Z,16.70
2023-05-14T20:58:41.536Z,15.60
2023-05-14T21:03:44.335Z,13.80
2023-05-14T21:08:47.116Z,17.20
2023-05-14T21:13:49.755Z,13.70
2023-05-14T21:18:52.342Z,12.60
2023-05-14T21:23:54.956Z,12.70
2023-05-14T21:28:59.022Z,8.70
2023-05-14T21:34:01.540Z,10.40
2023-05-14T21:39:04.109Z,10.20
2023-05-14T21:44:06.673Z,8.60
2023-05-14T21:49:09.253Z,10.10
2023-05-14T21:54:11.751Z,10.00
2023-05-14T21:59:14.321Z,9.70
2023-05-14T22:04:16.857Z,10.30
2023-05-14T22:09:19.560Z,10.80
2023-05-14T22:14:22.489Z,9.80
2023-05-14T22:19:26.805Z,8.30
2023-05-14T22:24:29.419Z,9.00
2023-05-14T22:29:32.381Z,7.40
2023-05-14T22:34:34.893Z,11.40
2023-05-14T22:39:37.549Z,10.00
2023-05-14T22:44:40.360Z,6.50
2023-05-14T22:49:43.566Z,8.30
2023-05-14T22:54:46.691Z,8.90
2023-05-14T22:59:49.256Z,7.00
2023-05-14T23:04:51.899Z,7.90
2023-05-14T23:09:54.624Z,9.80
2023-05-14T23:14:59.052Z,12.50
2023-05-14T23:20:01.833Z,8.60
2023-05-14T23:25:06.153Z,9.70
2023-05-14T23:30:11.895Z,8.70
2023-05-14T23:35:14.643Z,7.10
2023-05-14T23:40:17.920Z,7.10
2023-05-14T23:45:20.534Z,8.00
2023-05-14T23:50:23.272Z,8.40
2023-05-14T23:55:26.136Z,15.50
